sensor_id;sensor_type;location;lat;lon;timestamp;P1;durP1;ratioP1;P2;durP2;ratioP2
70683;SDS011;58263;48.146;11.440;2023-11-18T00:01:24;4.20;;;3.80;;
70683;SDS011;58263;48.146;11.440;2023-11-18T00:03:49;8.77;;;4.57;;
70683;SDS011;58263;48.146;11.440;2023-11-18T00:06:15;6.53;;;4.47;;
70683;SDS011;58263;48.146;11.440;2023-11-18T00:08:40;5.45;;;3.63;;
70683;SDS011;58263;48.146;11.440;2023-11-18T00:11:06;5.10;;;3.72;;
70683;SDS011;58263;48.146;11.440;2023-11-18T00:13:31;5.78;;;4.10;;
70683;SDS011;58263;48.146;11.440;2023-11-18T00:15:57;5.23;;;3.83;;
70683;SDS011;58263;48.146;11.440;2023-11-18T00:18:23;4.65;;;3.67;;
70683;SDS011;58263;48.146;11.440;2023-11-18T00:20:48;4.50;;;3.67;;
70683;SDS011;58263;48.146;11.440;2023-11-18T00:23:15;4.07;;;3.10;;
70683;SDS011;58263;48.146;11.440;2023-11-18T00:25:42;4.88;;;3.20;;
70683;SDS011;58263;48.146;11.440;2023-11-18T00:28:07;3.97;;;3.43;;
70683;SDS011;58263;48.146;11.440;2023-11-18T00:30:33;3.80;;;2.90;;
70683;SDS011;58263;48.146;11.440;2023-11-18T00:32:59;4.00;;;2.85;;
70683;SDS011;58263;48.146;11.440;2023-11-18T00:35:24;3.22;;;2.50;;
70683;SDS011;58263;48.146;11.440;2023-11-18T00:37:50;3.28;;;2.58;;
70683;SDS011;58263;48.146;11.440;2023-11-18T00:40:15;3.37;;;2.70;;
70683;SDS011;58263;48.146;11.440;2023-11-18T00:42:43;2.83;;;2.40;;
70683;SDS011;58263;48.146;11.440;2023-11-18T00:45:08;2.95;;;2.55;;
70683;SDS011;58263;48.146;11.440;2023-11-18T00:47:34;3.17;;;2.13;;
70683;SDS011;58263;48.146;11.440;2023-11-18T00:50:00;2.70;;;2.50;;
70683;SDS011;58263;48.146;11.440;2023-11-18T00:52:27;2.47;;;2.28;;
70683;SDS011;58263;48.146;11.440;2023-11-18T00:54:52;2.17;;;2.03;;
70683;SDS011;58263;48.146;11.440;2023-11-18T00:57:18;2.67;;;2.47;;
70683;SDS011;58263;48.146;11.440;2023-11-18T00:59:43;2.23;;;1.97;;
70683;SDS011;58263;48.146;11.440;2023-11-18T01:02:08;2.53;;;2.13;;
70683;SDS011;58263;48.146;11.440;2023-11-18T01:04:34;2.67;;;2.10;;
70683;SDS011;58263;48.146;11.440;2023-11-18T01:06:59;1.80;;;1.70;;
70683;SDS011;58263;48.146;11.440;2023-11-18T01:09:24;3.03;;;2.53;;
70683;SDS011;58263;48.146;11.440;2023-11-18T01:11:50;2.20;;;2.00;;
70683;SDS011;58263;48.146;11.440;2023-11-18T01:14:15;2.88;;;2.20;;
70683;SDS011;58263;48.146;11.440;2023-11-18T01:16:42;1.83;;;1.70;;
70683;SDS011;58263;48.146;11.440;2023-11-18T01:19:09;2.88;;;2.15;;
70683;SDS011;58263;48.146;11.440;2023-11-18T01:21:38;2.95;;;2.25;;
70683;SDS011;58263;48.146;11.440;2023-11-18T01:24:04;2.47;;;1.90;;
70683;SDS011;58263;48.146;11.440;2023-11-18T01:26:31;2.13;;;1.98;;
70683;SDS011;58263;48.146;11.440;2023-11-18T01:28:57;2.30;;;2.13;;
70683;SDS011;58263;48.146;11.440;2023-11-18T01:31:22;3.10;;;2.20;;
70683;SDS011;58263;48.146;11.440;2023-11-18T01:33:47;2.13;;;1.60;;
70683;SDS011;58263;48.146;11.440;2023-11-18T01:36:15;2.20;;;2.00;;
70683;SDS011;58263;48.146;11.440;2023-11-18T01:38:40;2.25;;;2.00;;
70683;SDS011;58263;48.146;11.440;2023-11-18T01:41:05;3.37;;;1.90;;
70683;SDS011;58263;48.146;11.440;2023-11-18T01:43:32;2.33;;;2.13;;
70683;SDS011;58263;48.146;11.440;2023-11-18T01:46:02;2.40;;;2.25;;
70683;SDS011;58263;48.146;11.440;2023-11-18T01:48:30;2.50;;;2.30;;
70683;SDS011;58263;48.146;11.440;2023-11-18T01:50:58;2.33;;;2.00;;
70683;SDS011;58263;48.146;11.440;2023-11-18T01:53:24;2.83;;;2.35;;
70683;SDS011;58263;48.146;11.440;2023-11-18T01:55:53;4.13;;;2.88;;
70683;SDS011;58263;48.146;11.440;2023-11-18T01:58:24;2.50;;;2.13;;
70683;SDS011;58263;48.146;11.440;2023-11-18T02:00:50;2.58;;;2.38;;
70683;SDS011;58263;48.146;11.440;2023-11-18T02:03:16;3.28;;;2.33;;
70683;SDS011;58263;48.146;11.440;2023-11-18T02:05:42;1.98;;;1.75;;
70683;SDS011;58263;48.146;11.440;2023-11-18T02:08:08;2.67;;;2.38;;
70683;SDS011;58263;48.146;11.440;2023-11-18T02:10:36;2.55;;;2.30;;
70683;SDS011;58263;48.146;11.440;2023-11-18T02:13:31;2.30;;;2.10;;
70683;SDS011;58263;48.146;11.440;2023-11-18T02:15:59;2.92;;;1.77;;
70683;SDS011;58263;48.146;11.440;2023-11-18T02:18:25;2.00;;;1.80;;
70683;SDS011;58263;48.146;11.440;2023-11-18T02:20:54;2.10;;;1.92;;
70683;SDS011;58263;48.146;11.440;2023-11-18T02:23:22;2.97;;;2.65;;
70683;SDS011;58263;48.146;11.440;2023-11-18T02:25:48;1.58;;;1.48;;
70683;SDS011;58263;48.146;11.440;2023-11-18T02:28:14;2.65;;;2.30;;
70683;SDS011;58263;48.146;11.440;2023-11-18T02:30:40;2.33;;;2.00;;
70683;SDS011;58263;48.146;11.440;2023-11-18T02:33:10;2.08;;;1.90;;
70683;SDS011;58263;48.146;11.440;2023-11-18T02:38:22;2.75;;;2.00;;
70683;SDS011;58263;48.146;11.440;2023-11-18T02:40:56;2.35;;;2.15;;
70683;SDS011;58263;48.146;11.440;2023-11-18T02:43:24;3.22;;;2.40;;
70683;SDS011;58263;48.146;11.440;2023-11-18T02:45:53;2.67;;;2.47;;
70683;SDS011;58263;48.146;11.440;2023-11-18T02:48:21;2.47;;;2.28;;
70683;SDS011;58263;48.146;11.440;2023-11-18T02:50:47;2.22;;;2.03;;
70683;SDS011;58263;48.146;11.440;2023-11-18T02:53:12;2.20;;;2.00;;
70683;SDS011;58263;48.146;11.440;2023-11-18T02:55:38;2.17;;;2.05;;
70683;SDS011;58263;48.146;11.440;2023-11-18T02:58:03;2.90;;;2.00;;
70683;SDS011;58263;48.146;11.440;2023-11-18T03:00:28;2.50;;;2.30;;
70683;SDS011;58263;48.146;11.440;2023-11-18T03:02:53;2.20;;;2.00;;
70683;SDS011;58263;48.146;11.440;2023-11-18T03:05:19;2.63;;;2.17;;
70683;SDS011;58263;48.146;11.440;2023-11-18T03:07:48;12.23;;;5.60;;
70683;SDS011;58263;48.146;11.440;2023-11-18T03:10:19;3.67;;;3.03;;
70683;SDS011;58263;48.146;11.440;2023-11-18T03:12:50;2.38;;;2.10;;
70683;SDS011;58263;48.146;11.440;2023-11-18T03:15:17;2.72;;;2.53;;
70683;SDS011;58263;48.146;11.440;2023-11-18T03:17:44;2.45;;;2.25;;
70683;SDS011;58263;48.146;11.440;2023-11-18T03:20:10;4.70;;;2.40;;
70683;SDS011;58263;48.146;11.440;2023-11-18T03:22:39;3.03;;;2.17;;
70683;SDS011;58263;48.146;11.440;2023-11-18T03:25:04;2.67;;;2.43;;
70683;SDS011;58263;48.146;11.440;2023-11-18T03:27:30;2.45;;;2.15;;
70683;SDS011;58263;48.146;11.440;2023-11-18T03:29:55;3.40;;;2.60;;
70683;SDS011;58263;48.146;11.440;2023-11-18T03:32:21;2.43;;;2.17;;
70683;SDS011;58263;48.146;11.440;2023-11-18T03:34:46;2.77;;;2.47;;
70683;SDS011;58263;48.146;11.440;2023-11-18T03:37:11;2.87;;;2.13;;
70683;SDS011;58263;48.146;11.440;2023-11-18T03:39:36;2.87;;;2.30;;
70683;SDS011;58263;48.146;11.440;2023-11-18T03:42:02;3.27;;;2.97;;
70683;SDS011;58263;48.146;11.440;2023-11-18T03:44:27;2.63;;;2.30;;
70683;SDS011;58263;48.146;11.440;2023-11-18T03:46:52;3.57;;;2.43;;
70683;SDS011;58263;48.146;11.440;2023-11-18T03:49:18;3.30;;;2.43;;
70683;SDS011;58263;48.146;11.440;2023-11-18T03:51:45;4.50;;;3.05;;
70683;SDS011;58263;48.146;11.440;2023-11-18T03:54:10;6.23;;;3.93;;
70683;SDS011;58263;48.146;11.440;2023-11-18T03:56:35;4.10;;;3.20;;
70683;SDS011;58263;48.146;11.440;2023-11-18T03:59:00;2.67;;;2.47;;
70683;SDS011;58263;48.146;11.440;2023-11-18T04:01:26;3.13;;;2.40;;
70683;SDS011;58263;48.146;11.440;2023-11-18T04:03:52;3.65;;;2.58;;
70683;SDS011;58263;48.146;11.440;2023-11-18T04:06:18;4.00;;;3.00;;
70683;SDS011;58263;48.146;11.440;2023-11-18T04:08:44;6.77;;;3.70;;
70683;SDS011;58263;48.146;11.440;2023-11-18T04:11:10;3.97;;;2.72;;
70683;SDS011;58263;48.146;11.440;2023-11-18T04:13:35;3.13;;;2.72;;
70683;SDS011;58263;48.146;11.440;2023-11-18T04:16:01;6.33;;;2.70;;
70683;SDS011;58263;48.146;11.440;2023-11-18T04:18:26;4.27;;;3.17;;
70683;SDS011;58263;48.146;11.440;2023-11-18T04:20:51;3.87;;;3.10;;
70683;SDS011;58263;48.146;11.440;2023-11-18T04:23:16;3.13;;;2.60;;
70683;SDS011;58263;48.146;11.440;2023-11-18T04:25:42;3.93;;;3.33;;
70683;SDS011;58263;48.146;11.440;2023-11-18T04:28:07;3.20;;;2.43;;
70683;SDS011;58263;48.146;11.440;2023-11-18T04:30:33;3.13;;;2.60;;
70683;SDS011;58263;48.146;11.440;2023-11-18T04:32:58;4.07;;;3.30;;
70683;SDS011;58263;48.146;11.440;2023-11-18T04:35:23;3.80;;;3.40;;
70683;SDS011;58263;48.146;11.440;2023-11-18T04:37:49;3.88;;;2.83;;
70683;SDS011;58263;48.146;11.440;2023-11-18T04:40:14;4.47;;;3.00;;
70683;SDS011;58263;48.146;11.440;2023-11-18T04:42:40;4.28;;;2.83;;
70683;SDS011;58263;48.146;11.440;2023-11-18T04:45:06;3.60;;;2.50;;
70683;SDS011;58263;48.146;11.440;2023-11-18T04:47:34;4.55;;;3.20;;
70683;SDS011;58263;48.146;11.440;2023-11-18T04:50:00;3.25;;;2.90;;
70683;SDS011;58263;48.146;11.440;2023-11-18T04:52:25;3.83;;;3.20;;
70683;SDS011;58263;48.146;11.440;2023-11-18T04:54:51;3.30;;;2.90;;
70683;SDS011;58263;48.146;11.440;2023-11-18T04:57:17;4.07;;;3.10;;
70683;SDS011;58263;48.146;11.440;2023-11-18T04:59:42;3.53;;;2.87;;
70683;SDS011;58263;48.146;11.440;2023-11-18T05:02:08;3.72;;;2.72;;
70683;SDS011;58263;48.146;11.440;2023-11-18T05:04:33;3.10;;;2.70;;
70683;SDS011;58263;48.146;11.440;2023-11-18T05:06:59;4.97;;;3.50;;
70683;SDS011;58263;48.146;11.440;2023-11-18T05:09:24;7.23;;;4.47;;
70683;SDS011;58263;48.146;11.440;2023-11-18T05:11:50;4.60;;;3.15;;
70683;SDS011;58263;48.146;11.440;2023-11-18T05:14:15;4.33;;;3.20;;
70683;SDS011;58263;48.146;11.440;2023-11-18T05:16:41;3.53;;;2.47;;
70683;SDS011;58263;48.146;11.440;2023-11-18T05:19:07;3.27;;;2.60;;
70683;SDS011;58263;48.146;11.440;2023-11-18T05:21:32;3.38;;;3.08;;
70683;SDS011;58263;48.146;11.440;2023-11-18T05:23:57;4.00;;;3.27;;
70683;SDS011;58263;48.146;11.440;2023-11-18T05:26:23;5.00;;;3.13;;
70683;SDS011;58263;48.146;11.440;2023-11-18T05:28:48;4.23;;;2.83;;
70683;SDS011;58263;48.146;11.440;2023-11-18T05:31:14;4.72;;;2.90;;
70683;SDS011;58263;48.146;11.440;2023-11-18T05:33:40;3.55;;;2.97;;
70683;SDS011;58263;48.146;11.440;2023-11-18T05:36:06;4.05;;;2.80;;
70683;SDS011;58263;48.146;11.440;2023-11-18T05:38:31;3.97;;;3.42;;
70683;SDS011;58263;48.146;11.440;2023-11-18T05:40:59;5.93;;;3.72;;
70683;SDS011;58263;48.146;11.440;2023-11-18T05:43:26;4.93;;;2.90;;
70683;SDS011;58263;48.146;11.440;2023-11-18T05:46:05;15.45;;;8.50;;
70683;SDS011;58263;48.146;11.440;2023-11-18T05:48:43;10.60;;;5.00;;
70683;SDS011;58263;48.146;11.440;2023-11-18T05:51:10;4.28;;;3.40;;
70683;SDS011;58263;48.146;11.440;2023-11-18T05:53:39;4.07;;;3.00;;
70683;SDS011;58263;48.146;11.440;2023-11-18T05:56:05;5.05;;;2.95;;
70683;SDS011;58263;48.146;11.440;2023-11-18T05:58:31;2.90;;;2.47;;
70683;SDS011;58263;48.146;11.440;2023-11-18T06:00:57;4.15;;;2.67;;
70683;SDS011;58263;48.146;11.440;2023-11-18T06:03:23;4.97;;;3.72;;
70683;SDS011;58263;48.146;11.440;2023-11-18T06:05:48;3.63;;;2.70;;
70683;SDS011;58263;48.146;11.440;2023-11-18T06:08:13;3.83;;;2.77;;
70683;SDS011;58263;48.146;11.440;2023-11-18T06:10:39;3.30;;;2.77;;
70683;SDS011;58263;48.146;11.440;2023-11-18T06:13:04;6.87;;;3.37;;
70683;SDS011;58263;48.146;11.440;2023-11-18T06:15:29;3.50;;;2.70;;
70683;SDS011;58263;48.146;11.440;2023-11-18T06:17:55;6.70;;;2.97;;
70683;SDS011;58263;48.146;11.440;2023-11-18T06:20:21;4.82;;;3.17;;
70683;SDS011;58263;48.146;11.440;2023-11-18T06:22:49;4.25;;;2.83;;
70683;SDS011;58263;48.146;11.440;2023-11-18T06:25:14;4.25;;;2.80;;
70683;SDS011;58263;48.146;11.440;2023-11-18T06:27:43;7.80;;;4.25;;
70683;SDS011;58263;48.146;11.440;2023-11-18T06:30:10;3.88;;;3.10;;
70683;SDS011;58263;48.146;11.440;2023-11-18T06:32:37;4.63;;;2.70;;
70683;SDS011;58263;48.146;11.440;2023-11-18T06:35:02;4.20;;;3.40;;
70683;SDS011;58263;48.146;11.440;2023-11-18T06:37:33;4.50;;;3.20;;
70683;SDS011;58263;48.146;11.440;2023-11-18T06:39:58;7.55;;;3.25;;
70683;SDS011;58263;48.146;11.440;2023-11-18T06:42:24;4.17;;;2.70;;
70683;SDS011;58263;48.146;11.440;2023-11-18T06:44:49;4.27;;;2.40;;
70683;SDS011;58263;48.146;11.440;2023-11-18T06:47:14;4.07;;;2.70;;
70683;SDS011;58263;48.146;11.440;2023-11-18T06:49:43;3.60;;;2.83;;
70683;SDS011;58263;48.146;11.440;2023-11-18T06:52:08;4.33;;;2.67;;
70683;SDS011;58263;48.146;11.440;2023-11-18T06:54:37;3.35;;;2.70;;
70683;SDS011;58263;48.146;11.440;2023-11-18T06:57:06;3.53;;;2.90;;
70683;SDS011;58263;48.146;11.440;2023-11-18T06:59:32;4.88;;;2.78;;
70683;SDS011;58263;48.146;11.440;2023-11-18T07:01:57;5.13;;;3.50;;
70683;SDS011;58263;48.146;11.440;2023-11-18T07:04:23;4.38;;;2.80;;
70683;SDS011;58263;48.146;11.440;2023-11-18T07:06:49;5.53;;;3.60;;
70683;SDS011;58263;48.146;11.440;2023-11-18T07:09:14;3.17;;;2.70;;
70683;SDS011;58263;48.146;11.440;2023-11-18T07:11:45;4.18;;;3.28;;
70683;SDS011;58263;48.146;11.440;2023-11-18T07:14:12;4.03;;;3.35;;
70683;SDS011;58263;48.146;11.440;2023-11-18T07:16:40;5.03;;;2.92;;
70683;SDS011;58263;48.146;11.440;2023-11-18T07:19:06;8.82;;;3.65;;
70683;SDS011;58263;48.146;11.440;2023-11-18T07:21:33;7.05;;;5.55;;
70683;SDS011;58263;48.146;11.440;2023-11-18T07:23:59;7.07;;;5.28;;
70683;SDS011;58263;48.146;11.440;2023-11-18T07:26:24;10.25;;;5.72;;
70683;SDS011;58263;48.146;11.440;2023-11-18T07:28:50;10.65;;;7.03;;
70683;SDS011;58263;48.146;11.440;2023-11-18T07:31:16;9.00;;;4.95;;
70683;SDS011;58263;48.146;11.440;2023-11-18T07:33:44;33.72;;;15.48;;
70683;SDS011;58263;48.146;11.440;2023-11-18T07:36:15;20.92;;;10.00;;
70683;SDS011;58263;48.146;11.440;2023-11-18T07:38:40;26.92;;;11.98;;
70683;SDS011;58263;48.146;11.440;2023-11-18T07:41:06;40.22;;;15.95;;
70683;SDS011;58263;48.146;11.440;2023-11-18T07:43:33;43.95;;;17.60;;
70683;SDS011;58263;48.146;11.440;2023-11-18T07:46:01;8.82;;;4.75;;
70683;SDS011;58263;48.146;11.440;2023-11-18T07:48:27;10.75;;;4.93;;
70683;SDS011;58263;48.146;11.440;2023-11-18T07:50:53;64.88;;;24.45;;
70683;SDS011;58263;48.146;11.440;2023-11-18T07:53:18;12.23;;;6.97;;
70683;SDS011;58263;48.146;11.440;2023-11-18T07:55:43;17.27;;;8.70;;
70683;SDS011;58263;48.146;11.440;2023-11-18T07:58:09;17.13;;;7.43;;
70683;SDS011;58263;48.146;11.440;2023-11-18T08:03:10;14.70;;;9.20;;
70683;SDS011;58263;48.146;11.440;2023-11-18T08:05:39;9.50;;;5.40;;
70683;SDS011;58263;48.146;11.440;2023-11-18T08:08:08;14.95;;;7.75;;
70683;SDS011;58263;48.146;11.440;2023-11-18T08:10:35;10.85;;;5.93;;
70683;SDS011;58263;48.146;11.440;2023-11-18T08:13:03;9.82;;;4.30;;
70683;SDS011;58263;48.146;11.440;2023-11-18T08:15:32;11.30;;;5.95;;
70683;SDS011;58263;48.146;11.440;2023-11-18T08:17:58;11.23;;;7.35;;
70683;SDS011;58263;48.146;11.440;2023-11-18T08:20:24;5.38;;;3.78;;
70683;SDS011;58263;48.146;11.440;2023-11-18T08:22:50;6.45;;;3.97;;
70683;SDS011;58263;48.146;11.440;2023-11-18T08:25:17;7.10;;;5.13;;
70683;SDS011;58263;48.146;11.440;2023-11-18T08:27:42;9.77;;;4.38;;
70683;SDS011;58263;48.146;11.440;2023-11-18T08:30:10;5.10;;;3.55;;
70683;SDS011;58263;48.146;11.440;2023-11-18T08:32:39;4.10;;;3.47;;
70683;SDS011;58263;48.146;11.440;2023-11-18T08:35:08;4.72;;;3.35;;
70683;SDS011;58263;48.146;11.440;2023-11-18T08:37:34;3.60;;;2.88;;
70683;SDS011;58263;48.146;11.440;2023-11-18T08:40:02;2.97;;;2.42;;
70683;SDS011;58263;48.146;11.440;2023-11-18T08:42:28;4.93;;;3.30;;
70683;SDS011;58263;48.146;11.440;2023-11-18T08:44:56;3.80;;;3.35;;
70683;SDS011;58263;48.146;11.440;2023-11-18T08:47:23;4.95;;;3.33;;
70683;SDS011;58263;48.146;11.440;2023-11-18T08:49:49;6.07;;;2.60;;
70683;SDS011;58263;48.146;11.440;2023-11-18T08:52:14;3.50;;;2.72;;
70683;SDS011;58263;48.146;11.440;2023-11-18T08:54:42;2.95;;;2.20;;
70683;SDS011;58263;48.146;11.440;2023-11-18T08:57:28;5.57;;;2.80;;
70683;SDS011;58263;48.146;11.440;2023-11-18T09:00:13;8.77;;;4.85;;
70683;SDS011;58263;48.146;11.440;2023-11-18T09:02:59;3.97;;;3.45;;
70683;SDS011;58263;48.146;11.440;2023-11-18T09:05:26;2.97;;;2.40;;
70683;SDS011;58263;48.146;11.440;2023-11-18T09:07:54;3.15;;;2.60;;
70683;SDS011;58263;48.146;11.440;2023-11-18T09:10:22;2.88;;;2.65;;
70683;SDS011;58263;48.146;11.440;2023-11-18T09:12:48;2.33;;;2.13;;
70683;SDS011;58263;48.146;11.440;2023-11-18T09:15:13;2.67;;;2.47;;
70683;SDS011;58263;48.146;11.440;2023-11-18T09:17:47;2.95;;;2.38;;
70683;SDS011;58263;48.146;11.440;2023-11-18T09:20:13;2.88;;;2.53;;
70683;SDS011;58263;48.146;11.440;2023-11-18T09:22:43;2.90;;;2.28;;
70683;SDS011;58263;48.146;11.440;2023-11-18T09:25:09;4.05;;;2.80;;
70683;SDS011;58263;48.146;11.440;2023-11-18T09:27:35;3.55;;;2.40;;
70683;SDS011;58263;48.146;11.440;2023-11-18T09:30:01;3.28;;;2.80;;
70683;SDS011;58263;48.146;11.440;2023-11-18T09:32:38;3.33;;;2.22;;
70683;SDS011;58263;48.146;11.440;2023-11-18T09:35:07;3.20;;;2.90;;
70683;SDS011;58263;48.146;11.440;2023-11-18T09:37:34;2.25;;;2.05;;
70683;SDS011;58263;48.146;11.440;2023-11-18T09:40:00;3.05;;;2.35;;
70683;SDS011;58263;48.146;11.440;2023-11-18T09:42:36;3.13;;;2.70;;
70683;SDS011;58263;48.146;11.440;2023-11-18T09:45:02;2.85;;;2.35;;
70683;SDS011;58263;48.146;11.440;2023-11-18T09:47:30;2.15;;;1.95;;
70683;SDS011;58263;48.146;11.440;2023-11-18T09:50:02;2.08;;;1.90;;
70683;SDS011;58263;48.146;11.440;2023-11-18T09:52:31;2.50;;;2.30;;
70683;SDS011;58263;48.146;11.440;2023-11-18T09:55:08;2.50;;;2.30;;
70683;SDS011;58263;48.146;11.440;2023-11-18T09:57:44;2.10;;;1.90;;
70683;SDS011;58263;48.146;11.440;2023-11-18T10:00:22;2.20;;;1.85;;
70683;SDS011;58263;48.146;11.440;2023-11-18T10:02:57;2.25;;;2.05;;
70683;SDS011;58263;48.146;11.440;2023-11-18T10:05:25;2.20;;;2.00;;
70683;SDS011;58263;48.146;11.440;2023-11-18T10:07:55;2.83;;;1.85;;
70683;SDS011;58263;48.146;11.440;2023-11-18T10:12:50;2.13;;;1.80;;
70683;SDS011;58263;48.146;11.440;2023-11-18T10:15:23;2.25;;;2.15;;
70683;SDS011;58263;48.146;11.440;2023-11-18T10:17:49;2.35;;;1.95;;
70683;SDS011;58263;48.146;11.440;2023-11-18T10:20:44;1.90;;;1.80;;
70683;SDS011;58263;48.146;11.440;2023-11-18T10:23:11;1.70;;;1.60;;
70683;SDS011;58263;48.146;11.440;2023-11-18T10:25:47;9.02;;;3.53;;
70683;SDS011;58263;48.146;11.440;2023-11-18T10:30:52;2.85;;;1.70;;
70683;SDS011;58263;48.146;11.440;2023-11-18T10:33:17;2.00;;;1.77;;
70683;SDS011;58263;48.146;11.440;2023-11-18T10:35:52;5.25;;;1.90;;
70683;SDS011;58263;48.146;11.440;2023-11-18T10:38:20;1.83;;;1.45;;
70683;SDS011;58263;48.146;11.440;2023-11-18T10:40:50;2.35;;;1.85;;
70683;SDS011;58263;48.146;11.440;2023-11-18T10:43:17;1.70;;;1.60;;
70683;SDS011;58263;48.146;11.440;2023-11-18T10:45:42;2.47;;;2.27;;
70683;SDS011;58263;48.146;11.440;2023-11-18T10:48:07;2.33;;;1.83;;
70683;SDS011;58263;48.146;11.440;2023-11-18T10:50:33;2.38;;;1.98;;
70683;SDS011;58263;48.146;11.440;2023-11-18T10:53:02;1.85;;;1.75;;
70683;SDS011;58263;48.146;11.440;2023-11-18T10:55:39;1.65;;;1.55;;
70683;SDS011;58263;48.146;11.440;2023-11-18T10:58:08;2.22;;;1.80;;
70683;SDS011;58263;48.146;11.440;2023-11-18T11:00:45;6.63;;;1.83;;
70683;SDS011;58263;48.146;11.440;2023-11-18T11:03:14;1.20;;;1.10;;
70683;SDS011;58263;48.146;11.440;2023-11-18T11:05:41;2.72;;;1.50;;
70683;SDS011;58263;48.146;11.440;2023-11-18T11:08:08;1.55;;;1.45;;
70683;SDS011;58263;48.146;11.440;2023-11-18T11:10:38;2.75;;;1.50;;
70683;SDS011;58263;48.146;11.440;2023-11-18T11:13:06;1.75;;;1.55;;
70683;SDS011;58263;48.146;11.440;2023-11-18T11:15:33;1.30;;;1.20;;
70683;SDS011;58263;48.146;11.440;2023-11-18T11:18:05;1.58;;;1.40;;
70683;SDS011;58263;48.146;11.440;2023-11-18T11:20:41;2.50;;;1.70;;
70683;SDS011;58263;48.146;11.440;2023-11-18T11:25:50;2.80;;;2.30;;
70683;SDS011;58263;48.146;11.440;2023-11-18T11:31:43;2.45;;;1.13;;
70683;SDS011;58263;48.146;11.440;2023-11-18T11:34:17;2.60;;;1.85;;
70683;SDS011;58263;48.146;11.440;2023-11-18T11:36:48;2.20;;;1.65;;
70683;SDS011;58263;48.146;11.440;2023-11-18T11:39:16;2.15;;;1.35;;
70683;SDS011;58263;48.146;11.440;2023-11-18T11:41:45;1.40;;;1.30;;
70683;SDS011;58263;48.146;11.440;2023-11-18T11:44:15;0.90;;;0.90;;
70683;SDS011;58263;48.146;11.440;2023-11-18T11:46:44;1.27;;;1.10;;
70683;SDS011;58263;48.146;11.440;2023-11-18T11:49:10;3.65;;;1.73;;
70683;SDS011;58263;48.146;11.440;2023-11-18T11:51:49;1.52;;;1.30;;
70683;SDS011;58263;48.146;11.440;2023-11-18T11:54:27;1.85;;;1.75;;
70683;SDS011;58263;48.146;11.440;2023-11-18T11:56:55;3.00;;;1.30;;
70683;SDS011;58263;48.146;11.440;2023-11-18T12:02:06;1.23;;;1.23;;
70683;SDS011;58263;48.146;11.440;2023-11-18T12:04:34;2.78;;;2.28;;
70683;SDS011;58263;48.146;11.440;2023-11-18T12:07:04;2.70;;;1.55;;
70683;SDS011;58263;48.146;11.440;2023-11-18T12:09:31;1.85;;;1.75;;
70683;SDS011;58263;48.146;11.440;2023-11-18T12:12:03;1.25;;;1.23;;
70683;SDS011;58263;48.146;11.440;2023-11-18T12:14:29;1.05;;;1.05;;
70683;SDS011;58263;48.146;11.440;2023-11-18T12:19:32;1.45;;;0.98;;
70683;SDS011;58263;48.146;11.440;2023-11-18T12:22:15;1.42;;;1.33;;
70683;SDS011;58263;48.146;11.440;2023-11-18T12:32:57;3.40;;;2.75;;
70683;SDS011;58263;48.146;11.440;2023-11-18T12:35:23;1.40;;;1.27;;
70683;SDS011;58263;48.146;11.440;2023-11-18T12:40:23;3.05;;;2.05;;
70683;SDS011;58263;48.146;11.440;2023-11-18T12:43:09;2.80;;;1.70;;
70683;SDS011;58263;48.146;11.440;2023-11-18T12:45:44;2.00;;;1.90;;
70683;SDS011;58263;48.146;11.440;2023-11-18T12:48:32;4.32;;;3.33;;
70683;SDS011;58263;48.146;11.440;2023-11-18T12:51:01;2.70;;;1.90;;
70683;SDS011;58263;48.146;11.440;2023-11-18T12:53:27;3.38;;;2.13;;
70683;SDS011;58263;48.146;11.440;2023-11-18T12:55:53;4.70;;;1.90;;
70683;SDS011;58263;48.146;11.440;2023-11-18T12:58:19;3.67;;;2.75;;
70683;SDS011;58263;48.146;11.440;2023-11-18T13:00:44;4.60;;;2.30;;
70683;SDS011;58263;48.146;11.440;2023-11-18T13:03:11;2.63;;;2.33;;
70683;SDS011;58263;48.146;11.440;2023-11-18T13:05:40;1.63;;;1.50;;
70683;SDS011;58263;48.146;11.440;2023-11-18T13:08:05;5.70;;;3.10;;
70683;SDS011;58263;48.146;11.440;2023-11-18T13:10:31;3.30;;;2.38;;
70683;SDS011;58263;48.146;11.440;2023-11-18T13:12:57;2.30;;;2.08;;
70683;SDS011;58263;48.146;11.440;2023-11-18T13:15:25;4.10;;;2.70;;
70683;SDS011;58263;48.146;11.440;2023-11-18T13:18:00;4.32;;;3.05;;
70683;SDS011;58263;48.146;11.440;2023-11-18T13:20:28;2.67;;;1.88;;
70683;SDS011;58263;48.146;11.440;2023-11-18T13:22:54;3.75;;;2.97;;
70683;SDS011;58263;48.146;11.440;2023-11-18T13:25:21;5.00;;;2.88;;
70683;SDS011;58263;48.146;11.440;2023-11-18T13:27:48;4.97;;;2.25;;
70683;SDS011;58263;48.146;11.440;2023-11-18T13:30:14;2.05;;;1.55;;
70683;SDS011;58263;48.146;11.440;2023-11-18T13:32:42;1.88;;;1.77;;
70683;SDS011;58263;48.146;11.440;2023-11-18T13:35:08;2.05;;;1.60;;
70683;SDS011;58263;48.146;11.440;2023-11-18T13:37:35;2.35;;;2.15;;
70683;SDS011;58263;48.146;11.440;2023-11-18T13:40:01;3.70;;;1.80;;
70683;SDS011;58263;48.146;11.440;2023-11-18T13:42:30;4.07;;;2.55;;
70683;SDS011;58263;48.146;11.440;2023-11-18T13:45:00;2.60;;;1.70;;
70683;SDS011;58263;48.146;11.440;2023-11-18T13:47:34;2.33;;;1.90;;
70683;SDS011;58263;48.146;11.440;2023-11-18T13:49:59;3.05;;;1.90;;
70683;SDS011;58263;48.146;11.440;2023-11-18T13:52:25;6.25;;;3.40;;
70683;SDS011;58263;48.146;11.440;2023-11-18T13:54:50;8.63;;;4.60;;
70683;SDS011;58263;48.146;11.440;2023-11-18T13:57:20;8.32;;;3.97;;
70683;SDS011;58263;48.146;11.440;2023-11-18T13:59:49;6.15;;;3.25;;
70683;SDS011;58263;48.146;11.440;2023-11-18T14:02:15;4.63;;;2.50;;
70683;SDS011;58263;48.146;11.440;2023-11-18T14:04:41;4.72;;;2.17;;
70683;SDS011;58263;48.146;11.440;2023-11-18T14:09:37;11.60;;;3.72;;
70683;SDS011;58263;48.146;11.440;2023-11-18T14:12:07;4.22;;;1.85;;
70683;SDS011;58263;48.146;11.440;2023-11-18T14:14:33;4.55;;;2.10;;
70683;SDS011;58263;48.146;11.440;2023-11-18T14:16:59;1.50;;;1.40;;
70683;SDS011;58263;48.146;11.440;2023-11-18T14:19:24;1.60;;;1.40;;
70683;SDS011;58263;48.146;11.440;2023-11-18T14:21:50;2.05;;;1.33;;
70683;SDS011;58263;48.146;11.440;2023-11-18T14:24:16;4.80;;;2.88;;
70683;SDS011;58263;48.146;11.440;2023-11-18T14:26:42;4.88;;;3.72;;
70683;SDS011;58263;48.146;11.440;2023-11-18T14:29:09;6.00;;;2.40;;
70683;SDS011;58263;48.146;11.440;2023-11-18T14:31:36;1.83;;;1.63;;
70683;SDS011;58263;48.146;11.440;2023-11-18T14:34:02;1.70;;;1.60;;
70683;SDS011;58263;48.146;11.440;2023-11-18T14:36:28;2.05;;;1.85;;
70683;SDS011;58263;48.146;11.440;2023-11-18T14:38:54;1.63;;;1.52;;
70683;SDS011;58263;48.146;11.440;2023-11-18T14:41:19;1.45;;;1.33;;
70683;SDS011;58263;48.146;11.440;2023-11-18T14:43:49;1.67;;;1.58;;
70683;SDS011;58263;48.146;11.440;2023-11-18T14:46:14;1.50;;;1.40;;
70683;SDS011;58263;48.146;11.440;2023-11-18T14:48:40;4.10;;;1.70;;
70683;SDS011;58263;48.146;11.440;2023-11-18T14:51:05;2.47;;;1.90;;
70683;SDS011;58263;48.146;11.440;2023-11-18T14:53:32;3.05;;;1.88;;
70683;SDS011;58263;48.146;11.440;2023-11-18T14:55:59;1.80;;;1.70;;
70683;SDS011;58263;48.146;11.440;2023-11-18T14:58:24;2.20;;;2.00;;
70683;SDS011;58263;48.146;11.440;2023-11-18T15:00:50;4.85;;;2.20;;
70683;SDS011;58263;48.146;11.440;2023-11-18T15:03:16;1.80;;;1.70;;
70683;SDS011;58263;48.146;11.440;2023-11-18T15:05:42;1.85;;;1.25;;
70683;SDS011;58263;48.146;11.440;2023-11-18T15:08:09;2.60;;;1.38;;
70683;SDS011;58263;48.146;11.440;2023-11-18T15:10:34;1.75;;;1.60;;